Wayland, New York
Current Conditions -  °F | °C
As of 7:54 PM on Sunday 23 Nov 2014 (Local Time) from KDSV Reporting Station
Clear Clear  
Wind Chill: 51°   Ceiling: Unl
Heat Index: 51°   Visibility: 10mi
Dew Point: 35°   Wind: 9mph
Humidity: 54%   Direction: 140°SE
Pressure: 29.83"   Gusts: NA
Location:  42.57°N, 77.59°W
Report Text: KDSV 240054Z AUTO 14008KT 10SM CLR 11/02 A2983 RMK AO2 SLP113 T01060017
Loading
Personal Weather Stations






























Interactive Weather Map New forecast layout! Learn more

10-Day Weather Forecast

Advertisements
Track Severe Weather on mobile